createdAt,value
2019-03-11T00:01:12.972Z,8.70
2019-03-11T00:03:42.687Z,8.70
2019-03-11T00:06:12.705Z,8.70
2019-03-11T00:08:42.436Z,8.60
2019-03-11T00:11:12.159Z,8.60
2019-03-11T00:13:41.926Z,8.50
2019-03-11T00:16:11.650Z,8.50
2019-03-11T00:18:41.694Z,8.40
2019-03-11T00:21:11.482Z,8.40
2019-03-11T00:23:41.206Z,8.20
2019-03-11T00:26:10.934Z,8.10
2019-03-11T00:28:40.710Z,7.80
2019-03-11T00:31:10.433Z,7.60
2019-03-11T00:33:40.163Z,7.40
2019-03-11T00:36:09.932Z,7.30
2019-03-11T00:38:39.654Z,7.10
2019-03-11T00:41:09.365Z,7.00
2019-03-11T00:43:39.149Z,6.90
2019-03-11T00:46:08.879Z,6.70
2019-03-11T00:48:38.607Z,6.60
2019-03-11T00:51:08.330Z,6.60
2019-03-11T00:53:38.103Z,6.50
2019-03-11T00:56:07.839Z,6.40
2019-03-11T00:58:37.580Z,6.20
2019-03-11T01:01:07.321Z,6.00
2019-03-11T01:03:37.043Z,5.80
2019-03-11T01:06:06.818Z,5.60
2019-03-11T01:08:36.535Z,5.50
2019-03-11T01:11:06.266Z,5.40
2019-03-11T01:13:36.030Z,5.30
2019-03-11T01:16:05.749Z,5.20
2019-03-11T01:18:35.510Z,5.10
2019-03-11T01:21:05.242Z,5.00
2019-03-11T01:23:34.958Z,4.90
2019-03-11T01:26:04.762Z,4.80
2019-03-11T01:28:34.480Z,4.80
2019-03-11T01:31:04.219Z,4.70
2019-03-11T01:33:33.989Z,4.60
2019-03-11T01:36:03.706Z,4.60
2019-03-11T01:38:33.431Z,4.50
2019-03-11T01:41:03.195Z,4.50
2019-03-11T01:43:32.916Z,4.40
2019-03-11T01:46:02.633Z,4.40
2019-03-11T01:48:32.391Z,4.30
2019-03-11T01:51:02.110Z,4.20
2019-03-11T01:53:31.875Z,4.30
2019-03-11T01:56:01.592Z,4.20
2019-03-11T01:58:31.326Z,4.20
2019-03-11T02:01:01.058Z,4.20
2019-03-11T02:03:31.130Z,4.10
2019-03-11T02:06:00.859Z,4.10
2019-03-11T02:08:30.592Z,4.10
2019-03-11T02:11:00.305Z,4.00
2019-03-11T02:13:30.021Z,4.00
2019-03-11T02:15:59.788Z,4.00
2019-03-11T02:18:29.515Z,4.00
2019-03-11T02:20:59.302Z,4.00
2019-03-11T02:23:29.014Z,4.00
2019-03-11T02:25:58.738Z,4.00
2019-03-11T02:28:28.486Z,4.00
2019-03-11T02:30:58.262Z,4.00
2019-03-11T02:33:27.998Z,3.90
2019-03-11T02:35:59.344Z,3.90
2019-03-11T02:38:29.070Z,3.90
2019-03-11T02:40:58.824Z,3.90
2019-03-11T02:43:28.557Z,3.80
2019-03-11T02:46:02.547Z,3.80
2019-03-11T02:48:32.278Z,3.80
2019-03-11T02:51:02.051Z,3.70
2019-03-11T02:53:31.770Z,3.70
2019-03-11T02:56:02.530Z,3.70
2019-03-11T02:58:32.247Z,3.70
2019-03-11T03:01:03.591Z,3.70
2019-03-11T03:03:37.708Z,3.80
2019-03-11T03:06:09.563Z,3.80
2019-03-11T03:08:38.435Z,3.80
2019-03-11T03:11:08.086Z,3.80
2019-03-11T03:13:38.847Z,3.80
2019-03-11T03:16:08.566Z,3.80
2019-03-11T03:18:38.659Z,3.90
2019-03-11T03:21:08.391Z,3.90
2019-03-11T03:23:38.167Z,3.90
2019-03-11T03:26:07.893Z,3.90
2019-03-11T03:28:37.615Z,3.90
2019-03-11T03:31:07.761Z,3.90
2019-03-11T03:33:38.466Z,4.00
2019-03-11T03:36:08.171Z,4.00
2019-03-11T03:38:37.941Z,4.00
2019-03-11T03:41:07.765Z,4.00
2019-03-11T03:43:37.487Z,4.00
2019-03-11T03:46:18.615Z,4.00
2019-03-11T03:48:39.534Z,4.10
2019-03-11T03:51:10.417Z,4.10
2019-03-11T03:53:40.144Z,4.10
2019-03-11T03:56:09.918Z,4.10
2019-03-11T03:58:39.655Z,4.10
2019-03-11T04:01:09.410Z,4.10
2019-03-11T04:03:39.146Z,4.10
2019-03-11T04:06:08.869Z,4.20
2019-03-11T04:08:38.624Z,4.20
2019-03-11T04:11:08.346Z,4.10
2019-03-11T04:13:38.226Z,4.10
2019-03-11T04:16:07.943Z,4.10
2019-03-11T04:18:52.755Z,4.20
2019-03-11T04:21:22.475Z,4.10
2019-03-11T04:23:53.509Z,4.20
2019-03-11T04:26:27.145Z,4.20
2019-03-11T04:28:57.238Z,4.20
2019-03-11T04:31:26.978Z,4.10
2019-03-11T04:33:56.711Z,4.20
2019-03-11T04:36:26.448Z,4.20
2019-03-11T04:38:56.183Z,4.10
2019-03-11T04:41:25.933Z,4.10
2019-03-11T04:43:55.646Z,4.20
2019-03-11T04:46:26.207Z,4.20
2019-03-11T04:48:55.934Z,4.20
2019-03-11T04:51:25.667Z,4.20
2019-03-11T04:53:55.390Z,4.20
2019-03-11T04:56:25.129Z,4.20
2019-03-11T04:58:56.367Z,4.20
2019-03-11T05:01:26.097Z,4.20
2019-03-11T05:03:55.891Z,4.10
2019-03-11T05:06:25.618Z,4.10
2019-03-11T05:08:55.367Z,4.10
2019-03-11T05:11:25.101Z,4.10
2019-03-11T05:13:54.818Z,4.10
2019-03-11T05:16:24.583Z,4.20
2019-03-11T05:18:54.310Z,4.20
2019-03-11T05:21:24.077Z,4.20
2019-03-11T05:23:53.801Z,4.20
2019-03-11T05:26:23.530Z,4.20
2019-03-11T05:28:53.259Z,4.30
2019-03-11T05:31:22.990Z,4.30
2019-03-11T05:33:52.979Z,4.30
2019-03-11T05:36:22.703Z,4.30
2019-03-11T05:38:52.430Z,4.30
2019-03-11T05:41:22.163Z,4.30
2019-03-11T05:43:51.874Z,4.30
2019-03-11T05:46:21.652Z,4.30
2019-03-11T05:48:51.374Z,4.30
2019-03-11T05:51:31.200Z,4.30
2019-03-11T05:53:52.491Z,4.40
2019-03-11T05:56:22.285Z,4.30
2019-03-11T05:58:52.028Z,4.30
2019-03-11T06:01:21.758Z,4.30
2019-03-11T06:03:51.490Z,4.30
2019-03-11T06:06:21.216Z,4.30
2019-03-11T06:08:50.979Z,4.30
2019-03-11T06:11:20.715Z,4.30
2019-03-11T06:13:50.455Z,4.30
2019-03-11T06:16:20.203Z,4.20
2019-03-11T06:18:50.487Z,4.20
2019-03-11T06:21:21.802Z,4.20
2019-03-11T06:23:51.574Z,4.20
2019-03-11T06:26:21.311Z,4.20
2019-03-11T06:28:51.091Z,4.20
2019-03-11T06:31:20.815Z,4.20
2019-03-11T06:33:50.551Z,4.20
2019-03-11T06:36:20.283Z,4.20
2019-03-11T06:38:49.994Z,4.10
2019-03-11T06:41:19.794Z,4.10
2019-03-11T06:43:49.520Z,4.10
2019-03-11T06:46:19.355Z,4.10
2019-03-11T06:48:49.086Z,4.20
2019-03-11T06:51:18.942Z,4.10
2019-03-11T06:53:48.831Z,4.20
2019-03-11T06:56:18.559Z,4.30
2019-03-11T06:58:48.298Z,4.30
2019-03-11T07:01:18.031Z,4.30
2019-03-11T07:03:47.771Z,4.40
2019-03-11T07:06:17.573Z,4.40
2019-03-11T07:08:47.287Z,4.40
2019-03-11T07:11:17.012Z,4.50
2019-03-11T07:13:46.834Z,4.50
2019-03-11T07:16:16.551Z,4.50
2019-03-11T07:18:46.282Z,4.50
2019-03-11T07:21:16.013Z,4.60
2019-03-11T07:23:45.728Z,4.50
2019-03-11T07:26:15.606Z,4.50
2019-03-11T07:28:45.327Z,4.50
2019-03-11T07:31:15.090Z,4.50
2019-03-11T07:33:44.807Z,4.50
2019-03-11T07:36:14.539Z,4.50
2019-03-11T07:38:44.279Z,4.50
2019-03-11T07:41:14.041Z,4.50
2019-03-11T07:43:43.767Z,4.60
2019-03-11T07:46:13.521Z,4.60
2019-03-11T07:48:43.245Z,4.60
2019-03-11T07:51:13.009Z,4.70
2019-03-11T07:53:42.756Z,4.70
2019-03-11T07:56:12.477Z,4.70
2019-03-11T07:58:42.213Z,4.80
2019-03-11T08:01:11.934Z,4.80
2019-03-11T08:03:41.707Z,4.90
2019-03-11T08:06:18.578Z,4.90
2019-03-11T08:08:42.842Z,4.90
2019-03-11T08:11:12.574Z,5.00
2019-03-11T08:13:42.319Z,5.10
2019-03-11T08:16:12.040Z,5.10
2019-03-11T08:18:41.763Z,5.20
2019-03-11T08:21:11.843Z,5.30
2019-03-11T08:23:41.563Z,5.30
2019-03-11T08:26:11.322Z,5.40
2019-03-11T08:28:41.047Z,5.40
2019-03-11T08:31:10.780Z,5.40
2019-03-11T08:33:40.540Z,5.50
2019-03-11T08:36:10.255Z,5.50
2019-03-11T08:38:40.031Z,5.50
2019-03-11T08:41:09.754Z,5.60
2019-03-11T08:43:39.487Z,5.60
2019-03-11T08:46:09.226Z,5.70
2019-03-11T08:48:39.002Z,5.80
2019-03-11T08:51:08.743Z,5.90
2019-03-11T08:53:38.477Z,5.90
2019-03-11T08:56:08.198Z,6.00
2019-03-11T08:58:37.924Z,6.00
2019-03-11T09:01:07.695Z,6.00
2019-03-11T09:03:37.416Z,6.00
2019-03-11T09:06:07.179Z,6.10
2019-03-11T09:08:36.904Z,6.10
2019-03-11T09:11:06.738Z,6.10
2019-03-11T09:13:36.467Z,6.10
2019-03-11T09:16:06.230Z,6.20
2019-03-11T09:18:35.962Z,6.20
2019-03-11T09:21:05.690Z,6.20
2019-03-11T09:23:35.494Z,6.20
2019-03-11T09:26:05.218Z,6.20
2019-03-11T09:28:35.092Z,6.30
2019-03-11T09:31:05.105Z,6.40
2019-03-11T09:33:34.868Z,6.40
2019-03-11T09:36:04.602Z,6.50
2019-03-11T09:38:34.315Z,6.50
2019-03-11T09:41:04.153Z,6.60
2019-03-11T09:43:33.883Z,6.60
2019-03-11T09:46:03.939Z,6.70
2019-03-11T09:48:33.662Z,6.80
2019-03-11T09:51:03.424Z,6.80
2019-03-11T09:53:33.136Z,6.90
2019-03-11T09:56:02.911Z,7.00
2019-03-11T09:58:32.633Z,7.00
2019-03-11T10:01:02.367Z,7.00
2019-03-11T10:03:32.098Z,7.10
2019-03-11T10:06:01.818Z,7.20
2019-03-11T10:08:31.768Z,7.30
2019-03-11T10:11:01.424Z,7.30
2019-03-11T10:13:32.196Z,7.40
2019-03-11T10:16:01.922Z,7.50
2019-03-11T10:18:31.650Z,7.70
2019-03-11T10:21:01.382Z,7.80
2019-03-11T10:23:32.592Z,7.90
2019-03-11T10:26:02.290Z,7.90
2019-03-11T10:28:32.058Z,8.00
2019-03-11T10:31:01.783Z,8.10
2019-03-11T10:33:31.513Z,8.10
2019-03-11T10:36:01.273Z,8.30
2019-03-11T10:38:30.966Z,8.60
2019-03-11T10:41:00.743Z,8.90
2019-03-11T10:43:30.467Z,9.10
2019-03-11T10:46:00.226Z,9.20
2019-03-11T10:48:37.283Z,9.30
2019-03-11T10:51:01.382Z,9.50
2019-03-11T10:53:31.166Z,9.50
2019-03-11T10:56:00.890Z,9.50
2019-03-11T10:58:30.959Z,9.40
2019-03-11T11:01:00.689Z,9.30
2019-03-11T11:03:30.981Z,9.30
2019-03-11T11:06:01.782Z,9.30
2019-03-11T11:08:31.510Z,9.30
2019-03-11T11:11:01.229Z,9.30
2019-03-11T11:13:32.108Z,9.30
2019-03-11T11:16:01.829Z,9.30
2019-03-11T11:18:31.545Z,9.20
2019-03-11T11:21:01.311Z,9.20
2019-03-11T11:23:31.026Z,9.20
2019-03-11T11:26:00.751Z,9.20
2019-03-11T11:28:30.546Z,9.20
2019-03-11T11:31:00.264Z,9.00
2019-03-11T11:33:30.937Z,9.10
2019-03-11T11:36:00.676Z,9.10
2019-03-11T11:38:30.386Z,9.10
2019-03-11T11:41:00.128Z,9.00
2019-03-11T11:43:29.854Z,9.10
2019-03-11T11:45:59.619Z,9.10
2019-03-11T11:48:29.347Z,9.10
2019-03-11T11:51:00.134Z,9.10
2019-03-11T11:53:29.871Z,9.20
2019-03-11T11:55:59.649Z,9.20
2019-03-11T11:58:29.384Z,9.20
2019-03-11T12:00:59.114Z,9.20
2019-03-11T12:03:28.863Z,9.20
2019-03-11T12:05:58.591Z,9.10
2019-03-11T12:08:28.315Z,9.10
2019-03-11T12:10:58.057Z,9.10
2019-03-11T12:13:27.774Z,9.00
2019-03-11T12:15:57.547Z,9.00
2019-03-11T12:18:28.272Z,9.00
2019-03-11T12:20:58.036Z,9.00
2019-03-11T12:23:27.750Z,9.00
2019-03-11T12:25:57.481Z,9.10
2019-03-11T12:28:27.205Z,9.10
2019-03-11T12:30:56.926Z,9.00
2019-03-11T12:33:26.792Z,9.00
2019-03-11T12:35:56.507Z,9.00
2019-03-11T12:38:28.712Z,9.00
2019-03-11T12:40:57.588Z,9.00
2019-03-11T12:43:27.316Z,9.00
2019-03-11T12:45:57.088Z,9.00
2019-03-11T12:48:26.808Z,8.90
2019-03-11T12:50:56.551Z,9.00
2019-03-11T12:53:26.278Z,9.10
2019-03-11T12:55:55.995Z,9.20
2019-03-11T12:58:26.625Z,9.40
2019-03-11T13:00:56.349Z,9.50
2019-03-11T13:03:26.132Z,9.60
2019-03-11T13:05:55.853Z,9.70
2019-03-11T13:08:25.578Z,9.70
2019-03-11T13:10:55.323Z,9.60
2019-03-11T13:13:25.038Z,9.40
2019-03-11T13:15:54.802Z,9.40
2019-03-11T13:18:35.913Z,9.30
2019-03-11T13:21:17.261Z,9.20
2019-03-11T13:23:46.986Z,9.10
2019-03-11T13:26:16.727Z,9.10
2019-03-11T13:28:46.463Z,9.10
2019-03-11T13:31:16.189Z,8.90
2019-03-11T13:33:45.952Z,8.80
2019-03-11T13:36:15.684Z,8.70
2019-03-11T13:38:45.422Z,8.60
2019-03-11T13:41:16.154Z,8.50
2019-03-11T13:43:48.432Z,8.40
2019-03-11T13:46:17.378Z,8.30
2019-03-11T13:48:47.103Z,8.30
2019-03-11T13:51:16.877Z,8.20
2019-03-11T13:53:46.615Z,8.20
2019-03-11T13:56:16.353Z,8.00
2019-03-11T13:58:46.087Z,7.80
2019-03-11T14:01:15.824Z,7.60
2019-03-11T14:38:47.878Z,4.40
2019-03-11T14:41:17.647Z,3.90
2019-03-11T14:43:47.369Z,3.90
2019-03-11T14:46:17.148Z,3.90
2019-03-11T14:48:46.871Z,3.90
2019-03-11T14:51:16.615Z,4.00
2019-03-11T14:53:46.625Z,4.00
2019-03-11T14:56:16.343Z,4.00
2019-03-11T14:58:46.115Z,4.00
2019-03-11T15:01:15.839Z,4.00
2019-03-11T15:03:45.559Z,4.00
2019-03-11T15:06:15.322Z,4.00
2019-03-11T15:08:45.053Z,3.90
2019-03-11T15:11:14.766Z,3.90
2019-03-11T15:13:44.552Z,4.00
2019-03-11T15:16:14.282Z,3.90
2019-03-11T15:18:44.063Z,3.90
2019-03-11T15:21:13.784Z,3.90
2019-03-11T15:23:43.510Z,3.90
2019-03-11T15:26:13.272Z,4.00
2019-03-11T15:28:42.990Z,4.20
2019-03-11T15:31:12.725Z,4.50
2019-03-11T15:33:42.458Z,4.70
2019-03-11T15:36:12.188Z,5.00
2019-03-11T15:38:41.965Z,5.10
2019-03-11T15:41:11.692Z,5.20
2019-03-11T15:43:41.418Z,5.20
2019-03-11T15:46:11.211Z,5.10
2019-03-11T15:48:40.944Z,5.10
2019-03-11T15:51:10.671Z,5.10
2019-03-11T15:53:40.438Z,5.00
2019-03-11T15:56:10.163Z,4.90
2019-03-11T15:58:39.891Z,4.90
2019-03-11T16:01:10.507Z,4.80
2019-03-11T16:03:40.227Z,4.80
2019-03-11T16:06:10.007Z,4.70
2019-03-11T16:08:39.728Z,4.60
2019-03-11T16:11:10.495Z,4.60
2019-03-11T16:13:40.221Z,4.50
2019-03-11T16:16:10.157Z,4.40
2019-03-11T16:18:40.072Z,4.30
2019-03-11T16:21:09.811Z,4.10
2019-03-11T16:23:39.852Z,4.10
2019-03-11T16:26:09.600Z,4.20
2019-03-11T16:28:47.775Z,4.10
2019-03-11T16:31:10.671Z,4.10
2019-03-11T16:33:40.570Z,4.00
2019-03-11T16:36:10.283Z,4.00
2019-03-11T16:38:40.052Z,3.90
2019-03-11T16:41:09.793Z,3.90
2019-03-11T16:43:39.514Z,3.80
2019-03-11T16:46:09.284Z,3.80
2019-03-11T16:48:39.011Z,3.80
2019-03-11T16:51:09.100Z,3.80
2019-03-11T16:53:38.836Z,3.90
2019-03-11T16:56:08.562Z,4.00
2019-03-11T16:58:38.345Z,4.00
2019-03-11T17:01:13.206Z,4.10
2019-03-11T17:03:43.253Z,4.20
2019-03-11T17:06:12.989Z,4.20
2019-03-11T17:08:42.723Z,4.30
2019-03-11T17:11:12.500Z,4.30
2019-03-11T17:13:42.218Z,4.20
2019-03-11T17:16:11.978Z,4.10
2019-03-11T17:18:41.706Z,4.10
2019-03-11T17:21:11.468Z,4.00
2019-03-11T17:23:41.230Z,3.90
2019-03-11T17:26:10.978Z,3.80
2019-03-11T17:28:40.706Z,3.80
2019-03-11T17:31:10.625Z,3.80
2019-03-11T17:33:40.502Z,3.70
2019-03-11T17:36:10.261Z,3.70
2019-03-11T17:38:40.782Z,3.70
2019-03-11T17:41:10.556Z,3.60
2019-03-11T17:43:40.330Z,3.60
2019-03-11T17:46:10.073Z,3.50
2019-03-11T17:48:39.790Z,3.50
2019-03-11T17:51:09.519Z,3.40
2019-03-11T17:53:39.423Z,3.30
2019-03-11T17:56:09.143Z,3.30
2019-03-11T17:58:39.920Z,3.20
2019-03-11T18:01:09.650Z,3.20
2019-03-11T18:03:39.376Z,3.10
2019-03-11T18:06:11.834Z,3.10
2019-03-11T18:08:40.523Z,3.10
2019-03-11T18:11:10.298Z,3.00
2019-03-11T18:13:40.088Z,3.00
2019-03-11T18:16:09.849Z,3.00
2019-03-11T18:18:39.861Z,2.90
2019-03-11T18:21:09.603Z,3.00
2019-03-11T18:23:39.358Z,2.90
2019-03-11T18:26:09.106Z,2.90
2019-03-11T18:28:38.836Z,2.90
2019-03-11T18:31:08.683Z,3.00
2019-03-11T18:33:38.636Z,3.10
2019-03-11T18:36:08.369Z,3.10
2019-03-11T18:38:38.123Z,3.10
2019-03-11T18:41:07.843Z,3.10
2019-03-11T18:43:42.649Z,3.10
2019-03-11T18:46:08.976Z,3.20
2019-03-11T18:48:38.717Z,3.20
2019-03-11T18:51:11.207Z,3.20
2019-03-11T18:53:40.170Z,3.20
2019-03-11T18:56:09.871Z,3.20
2019-03-11T18:58:39.602Z,3.20
2019-03-11T19:01:09.366Z,3.20
2019-03-11T19:03:39.095Z,3.20
2019-03-11T19:06:08.836Z,3.20
2019-03-11T19:08:38.640Z,3.20
2019-03-11T19:11:08.343Z,3.20
2019-03-11T19:13:38.077Z,3.20
2019-03-11T19:16:07.866Z,3.20
2019-03-11T19:18:37.619Z,3.20
2019-03-11T19:21:07.449Z,3.20
2019-03-11T19:23:37.222Z,3.20
2019-03-11T19:26:06.966Z,3.20
2019-03-11T19:28:36.700Z,3.20
2019-03-11T19:31:06.562Z,3.10
2019-03-11T19:33:36.312Z,3.20
2019-03-11T19:36:06.149Z,3.20
2019-03-11T19:38:36.038Z,3.10
2019-03-11T19:41:05.864Z,3.20
2019-03-11T19:43:35.581Z,3.20
2019-03-11T19:46:05.305Z,3.30
2019-03-11T19:48:36.179Z,3.20
2019-03-11T19:51:05.910Z,3.30
2019-03-11T19:53:35.711Z,3.30
2019-03-11T19:56:05.418Z,3.30
2019-03-11T19:58:35.209Z,3.20
2019-03-11T20:01:04.990Z,3.20
2019-03-11T20:03:34.764Z,3.20
2019-03-11T20:06:04.640Z,3.20
2019-03-11T20:08:35.904Z,3.10
2019-03-11T20:11:05.606Z,3.00
2019-03-11T20:13:36.651Z,3.00
2019-03-11T20:16:06.575Z,3.00
2019-03-11T20:18:36.357Z,2.90
2019-03-11T20:21:06.201Z,2.90
2019-03-11T20:23:38.078Z,2.80
2019-03-11T20:26:07.585Z,2.80
2019-03-11T20:28:37.420Z,2.70
2019-03-11T20:31:07.194Z,2.70
2019-03-11T20:33:36.942Z,2.60
2019-03-11T20:36:19.830Z,2.60
2019-03-11T20:38:38.262Z,2.50
2019-03-11T20:41:10.296Z,2.50
2019-03-11T20:43:40.109Z,2.50
2019-03-11T20:46:09.814Z,2.40
2019-03-11T20:48:39.555Z,2.50
2019-03-11T20:51:09.294Z,2.50
2019-03-11T20:53:39.052Z,2.50
2019-03-11T20:56:08.817Z,2.50
2019-03-11T20:58:38.570Z,2.50
2019-03-11T21:01:08.302Z,2.60
2019-03-11T21:03:38.076Z,2.60
2019-03-11T21:06:08.678Z,2.60
2019-03-11T21:08:38.385Z,2.60
2019-03-11T21:11:08.119Z,2.60
2019-03-11T21:13:37.865Z,2.60
2019-03-11T21:16:07.706Z,2.60
2019-03-11T21:18:37.446Z,2.60
2019-03-11T21:21:07.206Z,2.60
2019-03-11T21:23:36.995Z,2.60
2019-03-11T21:26:06.881Z,2.60
2019-03-11T21:28:36.686Z,2.60
2019-03-11T21:31:06.557Z,2.60
2019-03-11T21:33:36.393Z,2.60
2019-03-11T21:36:06.221Z,2.60
2019-03-11T21:38:36.006Z,2.70
2019-03-11T21:41:05.821Z,2.70
2019-03-11T21:43:35.530Z,2.60
2019-03-11T21:46:05.302Z,2.70
2019-03-11T21:48:35.046Z,2.70
2019-03-11T21:51:04.836Z,2.70
2019-03-11T21:53:34.566Z,2.70
2019-03-11T21:56:04.383Z,2.70
2019-03-11T21:58:34.186Z,2.80
2019-03-11T22:01:04.059Z,2.80
2019-03-11T22:03:33.765Z,2.80
2019-03-11T22:06:03.517Z,2.80
2019-03-11T22:08:33.256Z,2.80
2019-03-11T22:11:03.029Z,2.80
2019-03-11T22:13:46.509Z,2.80
2019-03-11T22:16:21.003Z,2.90
2019-03-11T22:18:50.722Z,2.90
2019-03-11T22:21:20.467Z,2.90
2019-03-11T22:23:50.217Z,2.90
2019-03-11T22:26:19.955Z,2.90
2019-03-11T22:28:49.690Z,2.90
2019-03-11T22:31:19.430Z,2.90
2019-03-11T22:33:49.194Z,2.90
2019-03-11T22:36:18.938Z,2.90
2019-03-11T22:38:48.679Z,3.00
2019-03-11T22:41:18.434Z,3.00
2019-03-11T22:43:48.178Z,3.00
2019-03-11T22:46:17.943Z,3.00
2019-03-11T22:48:47.665Z,3.00
2019-03-11T22:51:17.406Z,3.00
2019-03-11T22:53:47.139Z,3.00
2019-03-11T22:56:16.870Z,3.00
2019-03-11T22:58:46.614Z,3.00
2019-03-11T23:01:16.532Z,2.90
2019-03-11T23:03:50.389Z,2.90
2019-03-11T23:06:19.334Z,2.90
2019-03-11T23:08:49.108Z,2.90
2019-03-11T23:11:18.876Z,2.90
2019-03-11T23:13:48.579Z,2.90
2019-03-11T23:16:18.318Z,2.90
2019-03-11T23:18:48.064Z,2.90
2019-03-11T23:21:17.938Z,2.90
2019-03-11T23:23:47.674Z,2.90
2019-03-11T23:26:17.415Z,3.00
2019-03-11T23:28:47.182Z,2.90
2019-03-11T23:31:16.911Z,3.00
2019-03-11T23:33:46.650Z,3.00
2019-03-11T23:36:16.390Z,3.00
2019-03-11T23:38:46.116Z,3.00
2019-03-11T23:41:15.928Z,3.00
2019-03-11T23:43:45.655Z,3.00
2019-03-11T23:46:15.383Z,3.00
2019-03-11T23:48:45.155Z,3.00
2019-03-11T23:51:14.901Z,3.10
2019-03-11T23:53:44.646Z,3.10
2019-03-11T23:56:14.393Z,3.10
2019-03-11T23:58:44.134Z,3.10
